Date,TemperatureHighF,TemperatureAvgF,TemperatureLowF,DewpointHighF,DewpointAvgF,DewpointLowF,HumidityHigh,HumidityAvg,HumidityLow,PressureMaxIn,PressureMinIn,WindSpeedMaxMPH,WindSpeedAvgMPH,GustSpeedMaxMPH,PrecipitationSumIn
2013-1-1,42.0,37.6,32.4,33.5,31.2,26.5,89,78,56,29.59,29.20,22,9,30,0.00
2013-1-2,38.5,36.6,34.0,30.2,28.1,25.8,78,71,63,29.57,29.27,11,7,16,0.00
2013-1-3,40.6,38.0,35.6,27.0,24.4,20.8,67,58,50,29.56,29.52,19,11,29,0.00
2013-1-4,29.3,26.0,21.6,22.5,21.3,19.1,90,82,70,29.84,29.75,4,2,9,0.00
2013-1-5,31.0,26.6,21.6,25.7,21.9,18.6,89,82,74,29.76,29.32,7,4,12,0.00
2013-1-6,35.0,27.9,22.5,25.0,21.4,19.1,90,78,54,29.39,29.04,17,5,25,0.00
2013-1-7,34.4,25.8,20.7,24.5,18.1,15.2,81,73,60,29.40,29.06,16,4,24,0.00
2013-1-8,21.3,16.4,8.9,15.6,12.2,6.0,92,83,78,30.01,29.40,5,1,8,0.00
2013-1-9,13.2,7.9,3.0,9.9,5.0,-0.2,90,88,85,30.12,29.97,4,1,9,0.00
2013-1-10,21.2,18.5,13.3,19.7,16.5,9.9,94,92,86,30.17,29.98,5,1,9,0.00
2013-1-11,24.3,22.4,19.6,23.3,20.7,17.7,96,93,92,30.14,29.95,4,2,8,0.00
2013-1-12,38.6,31.0,24.4,35.4,29.2,23.2,97,93,87,30.14,29.86,13,4,22,0.56
2013-1-13,41.2,37.6,33.1,37.4,35.3,32.1,97,92,82,29.90,29.64,12,4,19,0.58
2013-1-14,43.0,39.8,34.7,38.2,33.7,17.9,97,79,50,29.93,29.48,13,7,22,0.36
2013-1-15,34.6,26.6,18.8,21.1,18.4,16.2,90,72,49,30.23,29.93,8,3,18,0.00
2013-1-16,20.5,18.9,16.8,18.5,16.7,14.1,93,91,88,30.20,29.68,7,2,11,0.00
2013-1-17,18.4,15.4,12.3,16.5,12.9,8.4,92,90,84,29.95,29.60,3,1,5,0.00
2013-1-18,12.2,7.7,2.4,8.3,4.0,-0.6,90,85,75,30.24,29.96,2,1,6,0.00
2013-1-19,22.1,16.0,8.3,19.0,12.4,4.5,88,86,82,30.25,29.98,7,4,12,0.00
2013-1-20,26.5,24.1,20.6,25.0,22.0,18.8,96,92,87,29.99,29.87,5,2,9,0.00
2013-1-21,24.0,21.2,18.0,21.4,19.1,16.6,96,92,88,29.93,29.74,7,2,12,0.00
2013-1-22,28.9,26.1,23.7,24.7,22.9,20.4,90,87,84,29.74,29.46,5,2,10,0.00
2013-1-23,30.3,27.5,21.5,28.6,24.8,20.0,96,90,83,29.45,29.33,6,2,11,0.00
2013-1-24,35.7,25.9,15.9,28.9,22.9,14.3,96,89,75,29.50,29.38,6,1,9,0.02
2013-1-25,35.7,16.1,0.1,30.5,7.5,-10.9,94,69,51,29.63,29.34,8,4,18,0.00
2013-1-26,2.7,-4.5,-17.8,-8.0,-14.0,-22.5,82,64,50,29.91,29.63,7,1,10,0.00
2013-1-27,-0.6,-15.4,-26.8,-14.7,-22.9,-33.5,81,69,47,30.20,29.92,3,0,8,0.00
2013-1-28,4.0,-5.7,-20.7,-0.4,-15.1,-26.9,84,64,50,30.25,29.93,9,3,17,0.00
2013-1-29,11.9,6.8,0.9,8.5,3.1,-3.1,86,85,82,29.93,29.81,5,4,10,0.00
2013-1-30,25.7,18.4,12.0,24.0,16.1,8.6,94,91,86,29.90,29.67,7,5,14,0.00
2013-1-31,31.7,28.7,26.0,30.9,27.7,24.4,98,96,93,29.96,29.71,3,1,7,0.01
2013-2-1,28.1,24.6,22.0,27.4,23.5,20.8,97,95,92,30.00,29.70,6,3,10,0.00
2013-2-2,29.4,27.1,24.2,27.6,25.4,22.7,95,93,87,29.70,29.40,5,3,9,0.00
2013-2-3,33.9,30.3,26.2,32.4,27.5,24.1,96,89,83,29.49,29.26,7,2,14,0.00
2013-2-4,38.3,32.0,25.0,32.0,28.6,23.0,97,87,67,29.65,29.49,14,3,20,0.01
2013-2-5,28.6,23.1,12.2,27.1,21.7,10.2,96,94,88,29.64,29.51,2,0,6,0.00
2013-2-6,25.2,21.2,11.9,24.0,19.8,10.0,95,94,92,29.64,29.49,2,0,4,0.00
2013-2-7,25.5,23.2,21.0,24.5,21.8,19.8,96,94,87,29.63,29.30,5,2,10,0.00
2013-2-8,32.0,26.6,24.1,30.0,25.3,22.9,96,95,92,29.77,29.37,5,1,8,0.00
2013-2-9,41.2,33.6,24.9,33.0,27.1,23.2,95,78,59,29.75,29.00,18,8,27,0.28
2013-2-10,40.5,35.9,30.8,34.0,30.8,27.6,96,82,67,29.49,28.98,15,4,28,0.17
2013-2-11,30.8,23.0,8.0,29.8,20.1,5.7,97,88,77,29.78,29.50,3,1,6,0.00
2013-2-12,24.1,20.3,8.8,22.1,18.1,6.2,93,91,89,29.79,29.75,6,3,10,0.00
2013-2-13,27.9,24.9,23.1,24.8,22.5,20.8,93,91,82,29.84,29.67,5,3,9,0.01
2013-2-14,33.9,27.6,22.4,28.8,23.3,19.4,96,84,58,29.67,29.24,9,4,17,0.00
2013-2-15,30.1,27.0,20.2,29.1,23.5,12.8,97,87,63,29.92,29.49,6,2,8,0.00
2013-2-16,24.4,18.3,9.3,17.5,14.6,7.0,94,86,68,30.02,29.81,7,2,13,0.00
2013-2-17,24.7,20.4,16.2,22.6,17.1,6.2,93,87,62,29.81,29.58,8,6,14,0.00
2013-2-18,17.8,12.6,3.2,8.8,4.5,-2.9,83,70,60,29.91,29.76,7,2,17,0.00
2013-2-19,15.5,6.4,-2.2,11.0,-0.6,-9.9,83,72,67,29.88,29.33,7,3,12,0.00
2013-2-20,28.8,20.4,14.8,20.5,14.4,8.4,89,77,69,29.33,29.09,5,3,9,0.00
2013-2-21,27.0,21.7,13.4,22.3,17.1,9.7,93,82,63,29.26,29.11,6,2,10,0.00
2013-2-22,25.5,22.6,13.4,21.5,19.6,11.0,94,88,80,29.43,29.19,5,2,9,0.01
2013-2-23,24.8,19.3,13.0,20.8,16.1,10.6,94,87,77,29.41,29.16,8,3,15,0.00
2013-2-24,28.5,23.9,17.6,26.4,21.7,15.4,96,91,86,29.65,29.35,6,2,11,0.00
2013-2-25,31.9,23.9,14.7,22.1,18.5,12.3,96,81,52,29.68,29.59,9,4,19,0.00
2013-2-26,33.9,27.9,21.8,20.3,16.5,10.0,77,63,40,29.60,29.33,8,5,16,0.00
2013-2-27,36.2,26.3,18.1,23.4,14.8,9.8,71,62,49,29.34,29.22,15,5,23,0.01
2013-2-28,34.8,29.6,21.3,26.9,22.5,16.6,92,75,57,29.39,29.30,9,3,11,0.01
2013-3-1,32.3,24.9,17.6,28.3,22.3,14.9,96,90,78,29.93,29.38,7,1,10,0.01
2013-3-2,34.3,24.4,17.8,28.4,22.2,16.4,97,91,76,30.11,29.94,4,1,5,0.00
2013-3-3,29.0,21.2,13.0,19.4,15.9,10.4,95,81,64,30.46,30.11,5,2,9,0.00
2013-3-4,32.3,25.0,17.7,20.0,16.9,13.1,82,71,59,30.49,30.32,5,2,8,0.00
2013-3-5,38.2,25.8,14.9,21.1,17.4,11.6,90,71,49,30.31,29.98,3,0,5,0.00
2013-3-6,34.6,26.0,17.6,23.6,19.5,14.4,91,77,63,29.99,29.86,4,1,8,0.00
2013-3-7,41.7,31.2,23.8,26.0,22.4,19.4,85,71,48,29.86,29.54,12,3,18,0.00
2013-3-8,41.9,37.8,33.4,30.7,28.1,24.3,79,68,53,29.76,29.56,12,4,22,0.00
2013-3-9,42.2,37.3,32.6,31.4,27.7,24.7,95,69,53,30.08,29.76,10,3,16,0.02
2013-3-10,32.8,31.2,28.1,31.8,29.3,26.9,96,93,88,30.21,30.08,7,3,11,0.13
2013-3-11,38.6,28.8,22.2,27.1,20.8,10.9,96,75,43,30.31,30.22,6,3,12,0.01
2013-3-12,32.1,26.2,15.5,11.7,4.3,-1.2,62,40,26,30.26,30.02,24,12,41,0.00
2013-3-13,27.8,22.0,11.8,0.1,-4.8,-7.9,47,31,21,30.02,29.81,24,12,39,0.00
2013-3-14,25.8,17.3,9.4,11.1,2.8,-5.7,76,53,33,29.91,29.82,9,4,26,0.00
2013-3-15,32.0,18.9,6.5,10.0,2.9,-3.3,83,54,26,29.89,29.73,17,4,27,0.00
2013-3-16,29.4,15.2,-1.2,6.6,-0.8,-8.3,73,50,32,30.09,29.84,10,2,18,0.00
2013-3-17,28.7,12.5,-4.8,8.9,0.9,-8.9,86,62,35,30.16,30.05,3,0,5,0.00
2013-3-18,27.6,11.5,-4.1,7.8,0.6,-8.0,87,65,35,30.05,29.88,3,0,6,0.00
2013-3-19,26.7,16.2,3.9,4.7,-0.6,-3.1,81,50,29,29.92,29.87,11,4,17,0.00
2013-3-20,25.1,13.8,5.1,3.3,-3.1,-6.9,73,47,28,29.99,29.89,7,1,12,0.00
2013-3-21,26.9,11.4,-7.8,7.1,-1.6,-12.1,83,59,34,30.22,29.99,3,0,8,0.00
2013-3-22,30.2,24.0,16.3,28.7,20.5,3.9,95,87,42,30.14,29.81,12,5,21,0.02
2013-3-23,29.5,25.7,21.4,27.0,20.9,14.4,95,82,65,29.87,29.75,5,2,10,0.01
2013-3-24,25.0,19.5,14.0,23.0,16.5,11.4,94,88,73,29.87,29.56,7,4,11,0.00
2013-3-25,23.0,15.7,4.7,21.5,12.7,-1.0,94,88,76,29.70,29.42,7,3,13,0.00
2013-3-26,17.4,3.7,-12.2,6.8,-3.0,-16.1,86,74,58,30.19,29.71,3,0,5,0.00
2013-3-27,18.8,3.5,-13.9,5.4,-4.1,-18.0,87,72,54,30.29,30.19,7,2,12,0.00
2013-3-28,26.3,18.0,10.4,24.0,13.2,2.2,92,81,63,30.24,29.95,7,5,13,0.00
2013-3-29,36.4,29.7,24.1,31.7,25.7,19.9,93,85,79,29.96,29.88,7,6,14,0.03
2013-3-30,41.6,33.7,26.9,33.7,30.0,25.7,96,87,65,30.24,29.96,7,1,10,0.02
2013-3-31,42.5,34.2,26.4,34.0,29.9,25.2,97,85,62,30.26,30.11,6,2,11,0.00
2013-4-1,41.7,28.9,15.3,26.4,21.2,13.6,94,75,43,30.11,29.95,5,1,7,0.00
2013-4-2,43.1,27.9,10.9,22.7,18.0,8.1,94,69,41,30.17,30.00,2,0,7,0.00
2013-4-3,44.1,36.2,28.1,24.1,21.2,16.5,74,55,41,30.25,30.17,6,2,9,0.00
2013-4-4,41.0,30.3,20.9,21.1,14.5,2.3,79,55,25,30.21,29.77,12,6,18,0.00
2013-4-5,37.0,26.5,16.2,12.3,5.1,1.0,51,40,28,29.77,29.48,9,4,20,0.00
2013-4-6,25.8,20.0,13.5,22.6,13.7,5.4,93,77,46,29.51,29.46,5,2,8,0.03
2013-4-7,25.8,19.8,10.9,22.2,12.6,6.8,92,75,47,29.80,29.51,7,2,13,0.00
2013-4-8,21.8,13.4,1.6,16.9,6.2,-4.8,91,73,56,29.80,29.29,5,2,9,0.00
2013-4-9,24.9,18.0,12.6,14.7,7.0,-2.3,89,64,38,29.46,29.10,5,2,9,0.01
2013-4-10,21.9,12.9,-0.8,13.5,2.2,-7.1,90,63,43,29.96,29.47,3,1,7,0.00
2013-4-11,25.3,12.4,-4.4,9.2,2.0,-8.6,90,66,38,30.11,29.97,7,3,14,0.00
2013-4-12,30.8,17.4,-1.0,5.1,-0.7,-8.8,72,47,28,30.13,30.03,7,3,12,0.00
2013-4-13,35.2,21.2,1.1,12.1,3.0,-6.7,73,47,26,30.41,30.13,6,2,9,0.01
2013-4-14,39.5,25.0,6.1,13.4,6.9,-0.1,81,49,26,30.52,30.41,4,1,7,0.00
2013-4-15,39.5,28.8,16.3,16.6,11.0,7.0,68,49,32,30.44,30.30,11,2,14,0.00
2013-4-16,36.6,26.7,14.8,13.4,9.3,5.2,67,49,32,30.31,30.08,6,3,11,0.00
2013-4-17,37.2,26.4,15.4,18.9,11.3,3.3,73,53,41,30.16,30.10,10,2,16,0.00
2013-4-18,42.5,29.5,17.2,21.7,11.8,5.7,77,49,28,30.19,30.10,10,3,13,0.00
2013-4-19,45.1,33.2,19.6,16.9,12.7,8.8,63,44,27,30.31,30.15,13,4,17,0.00
2013-4-20,48.0,36.3,19.2,19.0,14.7,11.9,74,43,25,30.41,30.32,8,2,22,0.00
2013-4-21,45.0,34.0,18.6,28.2,19.8,14.2,85,59,34,30.41,30.33,8,2,14,0.00
2013-4-22,50.8,37.5,23.4,26.3,21.7,18.3,90,57,29,30.53,30.40,4,2,9,0.00
2013-4-23,42.2,36.9,32.8,37.4,29.9,22.2,93,76,53,30.49,30.34,8,2,13,0.07
2013-4-24,41.3,36.6,32.9,35.0,33.4,29.5,96,88,73,30.33,29.83,7,2,10,0.00
2013-4-25,42.6,36.8,29.0,31.7,15.2,5.6,88,44,26,29.85,29.73,13,8,24,0.00
2013-4-26,41.5,32.0,20.6,19.5,11.4,6.1,58,43,27,29.78,29.48,7,4,14,0.00
2013-4-27,42.4,34.1,25.3,18.2,14.7,10.4,62,46,29,29.86,29.51,12,4,21,0.00
2013-4-28,41.1,36.6,26.0,17.3,13.2,6.0,57,38,32,30.15,30.01,11,6,20,0.00
2013-4-29,44.2,33.3,19.9,21.2,17.0,14.2,84,54,31,30.19,30.10,6,1,8,0.00
2013-4-30,37.3,35.3,31.9,33.5,27.2,21.1,93,73,54,30.10,29.83,13,4,18,0.00
2013-5-1,44.3,37.1,27.8,29.9,26.9,23.2,96,69,44,29.82,29.54,8,3,17,0.01
2013-5-2,40.2,36.2,32.9,37.7,32.6,27.3,96,87,68,29.86,29.62,4,1,6,0.22
2013-5-3,42.2,36.4,33.8,37.6,34.6,32.8,96,93,82,29.93,29.80,5,2,9,0.15
2013-5-4,39.1,35.3,32.4,37.2,33.9,31.4,97,95,89,29.92,29.74,5,2,8,0.24
2013-5-5,48.6,40.2,29.2,29.9,24.1,19.5,87,55,32,30.12,29.97,5,2,9,0.00
2013-5-6,47.2,40.0,29.9,29.6,25.6,21.9,85,58,38,30.25,30.12,8,2,15,0.00
2013-5-7,50.4,40.0,29.2,29.7,26.5,22.3,85,60,39,30.29,30.23,5,1,7,0.00
2013-5-8,52.9,41.7,27.3,29.9,26.1,22.5,89,58,33,30.28,30.21,8,3,15,0.00
2013-5-9,54.4,43.4,32.4,33.3,26.9,22.2,67,53,39,30.31,30.23,5,3,9,0.00
2013-5-10,60.3,48.8,32.3,35.1,32.0,28.1,85,55,35,30.25,29.94,6,2,10,0.00
2013-5-11,59.2,49.8,38.4,37.4,33.5,30.4,76,55,37,29.95,29.56,10,2,14,0.00
2013-5-12,52.6,46.0,38.8,45.0,39.6,34.4,94,79,61,29.57,29.45,9,1,12,0.03
2013-5-13,53.8,44.3,36.5,41.1,30.4,18.5,98,64,30,29.47,29.39,8,2,13,0.01
2013-5-14,46.1,38.1,30.1,32.2,22.5,15.8,80,54,36,29.63,29.46,11,5,16,0.00
2013-5-15,48.0,40.1,31.9,31.3,28.1,22.2,92,65,39,29.76,29.63,12,4,21,0.00
2013-5-16,41.8,38.6,36.7,38.2,33.1,26.4,96,81,56,29.75,29.47,9,5,15,0.07
2013-5-17,37.6,34.8,31.5,36.3,33.6,29.3,96,95,90,29.53,29.39,7,3,12,0.60
2013-5-18,38.8,32.4,26.3,29.8,23.6,12.9,93,72,39,30.17,29.53,6,3,12,0.02
2013-5-19,49.2,37.8,25.8,24.6,17.6,13.1,66,46,27,30.59,30.17,6,2,11,0.00
2013-5-20,53.8,41.8,27.1,28.2,24.6,20.9,88,54,30,30.65,30.53,8,2,12,0.00
2013-5-21,54.2,43.9,29.5,32.8,28.6,25.2,87,57,35,30.56,30.27,7,2,12,0.00
2013-5-22,56.3,45.1,34.0,38.3,32.9,29.6,85,64,43,30.27,30.10,7,2,10,0.00
2013-5-23,58.1,49.6,39.6,43.6,39.9,37.9,97,71,50,30.16,30.07,5,1,10,0.01
2013-5-24,68.7,55.2,35.7,41.9,38.2,33.9,95,58,30,30.09,29.94,6,1,9,0.00
2013-5-25,67.7,53.2,38.1,39.4,36.9,33.9,89,58,29,29.99,29.89,6,1,8,0.00
2013-5-26,65.0,50.7,36.2,42.3,37.9,33.3,92,65,32,29.93,29.84,8,1,10,0.00
2013-5-27,77.4,60.3,41.1,44.3,41.2,34.5,91,54,22,29.91,29.72,6,2,11,0.00
2013-5-28,81.1,61.5,40.0,46.9,41.0,33.2,91,53,18,29.77,29.60,6,2,11,0.00
2013-5-29,81.1,64.6,43.7,44.8,42.1,38.2,91,49,23,29.73,29.62,4,1,8,0.00
2013-5-30,72.3,60.3,45.9,44.1,41.8,38.7,83,53,32,29.99,29.73,6,1,11,0.00
2013-5-31,63.9,53.2,42.6,47.6,44.2,40.2,92,72,51,30.15,30.00,6,2,12,0.00
2013-6-1,58.0,50.6,46.1,45.9,43.9,42.4,89,78,62,30.20,30.15,4,1,9,0.00
2013-6-2,54.9,48.4,45.4,47.4,44.4,42.4,94,86,70,30.23,30.08,4,2,7,0.31
2013-6-3,58.9,50.6,42.8,46.6,43.8,41.4,96,79,57,30.07,29.75,5,2,9,0.00
2013-6-4,59.9,52.9,45.4,46.4,41.3,34.2,92,67,40,29.82,29.67,9,2,17,0.00
2013-6-5,62.3,53.7,41.5,42.4,38.0,35.6,89,57,39,29.95,29.82,6,2,10,0.00
2013-6-6,69.9,57.0,39.9,43.8,36.8,32.4,84,51,26,29.96,29.66,6,2,15,0.00
2013-6-7,75.1,59.0,44.3,50.3,42.3,38.9,90,57,30,29.92,29.67,17,2,25,0.00
2013-6-8,76.4,61.2,46.3,50.3,44.0,39.8,89,56,30,30.08,29.93,7,2,9,0.00
2013-6-9,78.7,65.5,47.3,49.7,44.6,34.2,89,52,21,30.18,30.11,5,1,10,0.00
2013-6-10,74.4,63.7,48.2,49.9,45.4,39.4,89,54,31,30.22,30.09,6,2,18,0.00
2013-6-11,76.5,65.1,51.4,49.0,41.9,33.8,78,47,22,30.12,29.94,5,2,14,0.00
2013-6-12,79.4,65.8,50.1,48.8,44.5,36.4,90,51,23,29.99,29.90,5,1,8,0.00
2013-6-13,71.8,62.5,51.0,49.0,45.9,39.1,84,56,38,30.16,29.94,7,2,9,0.00
2013-6-14,75.4,62.1,47.5,49.5,46.1,42.8,90,59,33,30.24,30.16,7,2,10,0.00
2013-6-15,76.5,63.1,48.1,53.6,49.1,45.0,92,63,39,30.32,30.20,6,2,9,0.00
2013-6-16,87.0,69.9,50.9,59.2,52.7,47.7,92,58,31,30.24,30.07,4,1,10,0.00
2013-6-17,88.9,73.3,56.4,61.5,55.2,51.0,85,56,34,30.10,29.84,5,1,9,0.00
2013-6-18,83.8,73.4,62.1,57.4,48.1,39.1,77,45,22,29.88,29.74,19,5,29,0.00
2013-6-19,75.7,66.2,57.0,50.9,47.3,41.7,77,52,33,29.97,29.88,10,3,18,0.00
2013-6-20,73.8,63.0,51.7,51.4,49.1,46.6,89,62,39,30.01,29.92,6,1,11,0.00
2013-6-21,60.6,53.7,49.7,48.5,45.9,42.7,90,76,57,30.10,30.02,5,1,9,0.00
2013-6-22,71.5,58.5,48.9,49.0,45.7,43.4,89,65,37,30.06,29.77,7,2,9,0.00
2013-6-23,72.1,61.4,52.6,51.6,45.1,41.7,73,56,37,29.78,29.62,6,1,10,0.00
2013-6-24,79.6,65.5,54.5,55.4,49.1,45.1,80,58,30,29.68,29.58,5,2,11,0.00
2013-6-25,77.7,66.5,53.0,57.3,53.2,47.9,91,64,44,29.62,29.57,5,1,11,0.00
2013-6-26,81.9,69.8,55.9,58.3,54.3,49.8,92,61,36,29.86,29.60,8,1,16,0.00
2013-6-27,71.2,64.7,59.8,56.3,54.0,52.2,80,69,55,30.07,29.86,4,1,9,0.00
2013-6-28,60.0,57.5,55.5,53.5,51.8,50.1,87,81,75,30.18,30.07,4,1,7,0.00
2013-6-29,64.8,59.2,54.3,55.7,53.0,51.0,91,80,69,30.14,29.99,4,1,8,0.00
2013-6-30,61.4,56.3,53.9,55.4,50.7,49.0,88,82,77,30.05,29.83,4,1,7,0.00
2013-7-1,55.6,53.2,50.5,52.5,50.0,45.2,96,89,76,29.84,29.60,5,1,8,0.47
2013-7-2,61.0,54.2,48.6,51.1,46.6,42.6,86,76,62,29.90,29.60,4,2,9,0.06
2013-7-3,62.4,55.1,50.5,49.3,47.7,43.7,91,77,51,30.02,29.90,6,1,11,0.00
2013-7-4,54.8,52.1,49.4,49.8,48.0,46.9,93,86,76,30.06,30.00,5,1,7,0.12
2013-7-5,63.3,55.2,49.5,51.3,47.9,45.6,92,77,54,30.08,30.02,3,1,7,0.00
2013-7-6,62.7,56.1,51.0,51.3,47.0,44.1,88,72,55,30.05,29.77,5,1,8,0.00
2013-7-7,64.9,57.0,50.6,54.4,49.1,45.4,93,75,63,29.76,29.58,7,2,12,0.02
2013-7-8,61.1,54.0,50.1,50.6,48.0,46.8,92,81,63,29.83,29.68,8,1,15,0.00
2013-7-9,68.5,59.0,52.6,52.0,49.3,46.7,90,72,48,30.03,29.84,5,2,10,0.00
2013-7-10,71.5,61.6,53.3,56.0,51.6,48.7,91,71,45,30.05,29.92,6,2,9,0.03
2013-7-11,77.8,66.7,55.7,57.8,52.9,48.2,86,64,37,29.95,29.88,4,1,9,0.00
2013-7-12,80.9,66.4,53.2,57.9,53.0,48.8,88,64,40,29.96,29.87,7,1,7,0.00
2013-7-13,76.0,66.9,60.2,56.6,52.4,48.3,83,61,41,30.16,29.95,5,1,11,0.00
2013-7-14,70.0,61.7,51.9,55.0,51.6,47.7,87,70,54,30.31,30.17,4,1,8,0.00
2013-7-15,62.6,57.7,52.4,54.5,52.1,49.2,92,82,72,30.35,30.25,5,1,8,0.00
2013-7-16,67.2,60.2,54.2,56.1,53.6,51.5,93,79,65,30.25,30.13,3,1,7,0.02
2013-7-17,73.7,64.2,57.7,59.3,56.1,52.8,87,75,57,30.14,30.06,5,1,10,0.00
2013-7-18,72.2,65.3,57.0,60.5,58.0,54.6,92,78,63,30.14,30.08,7,2,12,0.00
2013-7-19,71.9,65.9,61.6,60.0,56.2,53.9,89,72,59,30.17,30.10,4,1,10,0.00
2013-7-20,72.6,63.9,56.4,56.7,52.3,43.2,94,69,37,30.12,30.03,5,2,13,0.01
2013-7-21,76.4,65.1,50.2,49.8,45.7,42.0,85,53,30,30.06,29.92,7,3,14,0.00
2013-7-22,84.9,69.1,54.9,55.8,47.7,43.7,69,48,26,30.06,29.98,4,2,11,0.00
2013-7-23,81.8,68.4,55.4,58.4,52.4,48.6,81,59,36,30.10,30.00,6,2,8,0.00
2013-7-24,84.1,70.0,54.9,60.3,54.7,50.6,90,60,37,30.03,29.89,5,1,8,0.00
2013-7-25,76.5,67.8,60.3,61.5,58.9,54.6,93,74,55,30.06,29.92,6,2,10,0.17
2013-7-26,74.2,64.9,60.0,60.3,58.3,56.1,92,80,61,30.28,30.06,6,2,9,0.00
2013-7-27,74.3,64.6,56.2,60.4,57.4,54.2,95,79,59,30.35,30.27,6,2,8,0.00
2013-7-28,78.9,67.3,60.6,62.5,58.8,56.1,89,75,54,30.30,30.13,4,1,8,0.00
2013-7-29,77.6,67.1,57.5,61.0,58.4,55.2,94,75,54,30.18,30.11,5,2,8,0.00
2013-7-30,77.7,67.4,57.2,61.3,58.4,55.2,94,74,55,30.21,30.14,6,2,9,0.00
2013-7-31,75.0,65.9,58.2,60.0,57.1,53.7,93,75,53,30.21,30.09,6,2,9,0.00
2013-8-1,72.6,62.8,54.9,59.2,56.2,52.9,96,80,60,30.14,29.95,6,2,9,0.00
2013-8-2,71.9,63.6,53.6,56.6,53.7,50.0,94,72,48,30.00,29.78,4,0,7,0.00
2013-8-3,68.1,63.0,56.9,55.6,52.2,48.0,93,69,50,29.90,29.76,10,3,14,0.03
2013-8-4,66.8,61.0,56.2,54.6,52.6,50.0,88,75,57,29.96,29.90,3,0,8,0.00
2013-8-5,69.1,61.7,54.8,54.5,52.2,48.7,91,72,53,29.97,29.94,0,0,0,0.00
2013-8-6,69.8,62.1,54.0,55.9,49.9,45.2,83,65,43,29.96,29.90,9,2,14,0.01
2013-8-7,62.6,58.8,54.8,57.2,52.6,48.2,93,80,63,29.91,29.75,5,1,9,0.05
2013-8-8,65.7,58.1,53.7,55.9,52.5,46.7,95,82,67,29.83,29.73,5,1,10,0.06
2013-8-9,58.0,53.7,50.3,55.1,50.7,47.2,96,90,77,29.83,29.72,5,2,9,0.44
2013-8-10,64.1,55.9,51.8,56.0,52.8,49.3,96,90,73,30.00,29.77,6,1,9,0.17
2013-8-11,57.4,54.7,52.2,56.6,53.4,50.5,97,96,92,30.03,29.99,2,0,6,0.53
2013-8-12,66.5,59.3,54.9,60.7,57.1,54.3,98,93,79,30.05,30.00,4,1,7,0.14
2013-8-13,72.1,61.2,55.7,60.7,56.9,52.4,98,87,59,30.01,29.94,4,0,11,0.02
2013-8-14,63.4,57.7,54.5,53.5,51.9,50.6,92,82,66,30.03,29.89,5,2,8,0.00
2013-8-15,64.8,59.1,54.2,54.2,51.8,49.9,91,78,62,29.90,29.75,5,1,9,0.00
2013-8-16,63.2,56.0,49.3,56.4,52.3,47.4,95,88,72,29.76,29.65,3,1,6,0.13
2013-8-17,70.6,58.1,52.5,59.3,54.8,51.5,97,90,62,29.66,29.50,8,1,9,0.10
2013-8-18,60.5,56.6,54.0,56.9,54.3,50.5,97,92,82,29.65,29.48,8,3,11,0.23
2013-8-19,55.9,53.9,51.8,52.9,50.6,47.7,96,89,77,29.76,29.65,8,4,11,0.32
2013-8-20,60.6,55.0,51.4,55.0,52.3,48.7,96,91,80,29.85,29.76,7,2,10,0.08
2013-8-21,54.8,52.9,51.0,53.6,50.9,48.2,97,93,88,29.86,29.77,8,4,12,0.43
2013-8-22,55.9,53.1,50.9,53.3,51.0,49.1,96,93,88,29.77,29.70,8,4,11,0.33
2013-8-23,64.1,55.7,51.4,56.6,52.4,50.4,98,89,63,29.69,29.52,9,3,13,0.41
2013-8-24,68.9,57.0,46.7,51.7,47.4,40.0,98,74,35,29.69,29.57,8,2,11,0.00
2013-8-25,68.9,55.0,42.1,53.1,41.8,37.3,91,63,33,29.75,29.67,5,2,10,0.00
2013-8-26,67.2,55.0,41.9,52.0,45.2,40.3,95,73,42,29.76,29.71,4,1,9,0.00
2013-8-27,62.1,53.1,44.1,53.3,47.9,42.7,96,83,62,29.80,29.73,9,2,13,0.04
2013-8-28,61.8,55.5,51.0,53.4,50.4,46.8,96,84,59,29.73,29.59,9,3,11,0.42
2013-8-29,55.9,52.7,49.5,53.8,50.8,48.1,96,93,89,29.87,29.56,4,2,12,0.03
2013-8-30,59.0,54.7,51.0,54.2,52.3,49.9,98,92,82,29.95,29.88,7,2,10,0.01
2013-8-31,54.0,52.2,49.9,52.2,50.0,48.0,95,92,88,29.94,29.84,8,3,10,0.27
2013-9-1,55.6,52.7,50.0,52.9,50.6,49.0,97,93,84,29.85,29.72,11,4,13,0.10
2013-9-2,59.9,55.2,52.3,53.5,51.2,49.8,96,87,72,29.72,29.51,13,5,23,0.46
2013-9-3,59.5,54.0,50.5,54.4,50.4,47.7,96,88,69,29.54,29.29,10,3,21,0.10
2013-9-4,55.1,51.7,49.1,51.0,49.3,47.3,97,92,83,29.80,29.42,9,4,14,0.27
2013-9-5,58.7,51.9,45.5,50.2,47.3,44.2,96,85,66,30.02,29.80,7,2,10,0.20
2013-9-6,53.4,46.8,42.9,49.9,45.0,40.9,97,94,87,30.03,29.43,4,2,12,0.49
2013-9-7,56.6,51.5,46.8,53.9,49.8,45.7,97,94,89,29.65,29.47,4,2,11,0.11
2013-9-8,57.5,52.2,48.1,52.4,49.7,45.9,97,91,77,29.86,29.43,9,3,13,0.25
2013-9-9,61.1,53.5,47.6,47.3,45.2,42.6,94,75,51,29.86,29.65,17,6,24,0.08
2013-9-10,55.4,52.5,49.8,52.6,49.6,47.0,96,90,80,29.76,29.70,12,3,17,0.27
2013-9-11,53.0,50.9,48.7,50.6,49.4,48.0,98,95,88,29.91,29.60,9,3,13,1.09
2013-9-12,59.3,52.5,46.7,50.8,48.0,45.5,97,85,65,30.00,29.91,3,0,6,0.02
2013-9-13,57.8,52.3,47.7,52.3,48.8,45.3,95,88,80,29.95,29.91,7,2,11,0.15
2013-9-14,66.9,51.9,41.0,52.5,47.8,40.2,99,87,53,29.95,29.83,4,1,11,0.01
2013-9-15,64.7,50.9,41.0,49.5,41.8,37.0,97,74,39,29.88,29.70,4,1,10,0.00
2013-9-16,55.0,46.5,38.6,43.4,39.1,35.0,97,76,58,29.70,29.49,4,1,9,0.00
2013-9-17,51.8,48.0,44.8,44.1,42.0,40.0,92,80,66,29.53,29.47,9,2,14,0.00
2013-9-18,50.5,45.1,41.2,45.1,39.8,32.9,95,82,67,29.64,29.53,5,1,8,0.19
2013-9-19,50.5,42.4,35.7,44.5,34.3,28.3,96,75,49,29.60,29.42,8,2,12,0.13
2013-9-20,46.6,37.2,28.8,32.5,25.3,22.0,89,64,38,29.42,29.06,4,2,10,0.00
2013-9-21,45.4,36.7,29.6,38.0,29.7,25.3,93,76,58,29.05,28.95,5,2,13,0.02
2013-9-22,44.8,41.4,39.0,34.1,27.4,23.2,72,57,50,29.29,28.94,7,4,19,0.00
2013-9-23,44.2,39.2,31.4,35.0,28.3,22.1,94,66,51,29.78,29.29,6,2,16,0.00
2013-9-24,44.0,34.6,26.5,37.0,30.1,23.7,96,84,67,30.00,29.78,6,1,9,0.00
2013-9-25,48.2,42.6,37.3,46.3,41.0,32.9,98,94,71,29.83,29.49,5,2,12,0.93
2013-9-26,49.2,44.3,40.6,46.4,42.8,40.0,98,95,80,29.63,29.25,7,1,12,0.11
2013-9-27,53.2,48.4,44.1,44.3,41.0,37.5,86,76,61,29.25,28.99,10,3,17,0.00
2013-9-28,53.7,42.1,33.6,42.1,36.7,31.1,97,83,59,29.16,29.05,3,1,12,0.00
2013-9-29,52.1,46.8,43.1,39.7,31.9,29.0,69,56,46,29.33,29.12,5,2,15,0.00
2013-9-30,54.4,46.1,35.5,33.4,29.8,27.2,79,54,41,29.62,29.34,5,2,13,0.00
2013-10-1,50.6,43.8,35.6,38.2,32.4,27.2,87,65,48,29.82,29.63,4,1,8,0.01
2013-10-2,46.9,42.3,39.1,43.4,40.2,36.4,96,92,84,29.84,29.80,4,2,10,0.25
2013-10-3,51.8,43.2,38.2,43.2,39.4,35.5,98,88,55,29.80,29.46,7,3,16,0.01
2013-10-4,53.7,44.8,37.9,41.5,37.9,35.3,92,77,56,29.74,29.47,3,1,9,0.00
2013-10-5,48.8,41.7,34.9,41.7,37.4,33.6,97,85,71,29.79,29.69,5,0,8,0.00
2013-10-6,43.4,41.6,39.4,41.7,39.9,37.4,96,94,87,29.73,29.69,4,1,6,0.22
2013-10-7,45.9,41.6,38.5,42.2,39.6,36.5,98,93,81,29.88,29.73,3,1,6,0.01
2013-10-8,45.3,42.2,36.4,41.3,39.2,35.4,97,89,78,29.74,29.06,18,7,28,0.77
2013-10-9,48.9,41.0,35.3,40.8,36.3,30.7,98,85,53,29.73,29.08,8,2,14,0.00
2013-10-10,40.9,35.5,30.7,35.4,31.8,27.8,96,86,71,29.75,29.72,8,3,13,0.16
2013-10-11,42.5,38.3,35.6,41.2,37.5,34.6,98,97,95,29.88,29.74,4,2,8,0.13
2013-10-12,52.3,46.3,40.1,45.1,40.1,35.6,97,80,54,29.86,29.64,15,3,17,0.05
2013-10-13,52.0,44.9,39.7,41.1,38.5,35.7,95,80,54,29.69,29.46,22,9,36,0.31
2013-10-14,49.4,45.7,42.3,41.2,38.2,36.5,85,75,62,30.05,29.69,12,4,18,0.00
2013-10-15,50.5,46.7,43.7,42.8,40.4,36.8,90,79,68,30.12,30.04,14,7,24,0.22
2013-10-16,52.2,47.8,43.1,45.9,43.4,41.0,96,85,66,30.25,30.12,9,2,17,0.01
2013-10-17,51.6,46.1,42.2,47.1,42.4,36.3,97,88,56,30.15,29.79,15,3,21,0.18
2013-10-18,51.7,48.5,43.3,42.7,38.6,33.0,94,70,51,29.80,29.62,17,5,23,0.07
2013-10-19,51.3,48.3,40.9,41.1,36.6,32.9,90,65,50,29.65,29.34,20,8,32,0.00
2013-10-20,50.4,46.1,40.8,39.0,34.8,30.1,82,65,46,29.96,29.65,11,3,17,0.01
2013-10-21,47.5,41.9,38.2,38.9,35.6,32.4,91,79,59,30.05,29.95,9,3,13,0.06
2013-10-22,44.6,39.9,34.3,37.7,35.0,31.7,97,83,67,30.21,30.04,4,2,10,0.00
2013-10-23,37.2,31.9,26.5,33.7,28.6,24.2,97,88,63,30.08,29.75,5,2,9,0.00
2013-10-24,39.1,31.6,26.2,32.2,27.0,23.0,93,83,72,29.85,29.67,8,4,12,0.00
2013-10-25,46.1,37.7,32.1,36.5,33.4,29.7,94,85,66,30.17,29.74,5,1,10,0.00
2013-10-26,40.2,32.7,27.0,34.6,30.3,25.8,97,91,78,30.47,30.18,7,2,13,0.01
2013-10-27,44.3,37.9,33.6,40.3,34.9,29.1,96,89,79,30.32,29.62,15,5,24,0.43
2013-10-28,47.0,41.8,37.8,43.7,39.5,36.8,97,92,75,29.63,29.21,9,5,19,0.60
2013-10-29,51.0,44.2,37.4,38.9,35.8,33.9,88,73,55,29.58,29.39,13,4,25,0.00
2013-10-30,42.8,38.9,35.4,36.1,33.7,31.3,90,82,66,29.38,29.10,7,4,12,0.00
2013-10-31,41.5,37.7,34.1,37.8,35.3,32.6,95,91,82,29.62,29.17,6,1,8,0.00
2013-11-1,40.5,38.5,36.6,39.3,37.5,35.8,97,96,94,30.00,29.62,4,1,5,0.11
2013-11-2,40.1,37.7,35.5,38.6,36.8,34.3,98,96,90,30.00,29.83,3,1,6,0.01
2013-11-3,40.5,36.9,34.6,34.7,32.6,28.3,97,85,62,29.85,29.59,9,4,15,0.00
2013-11-4,37.1,34.4,31.8,32.7,31.0,29.4,94,87,79,29.59,29.30,6,4,10,0.00
2013-11-5,38.9,33.9,30.9,31.8,25.6,17.9,91,73,50,29.99,29.38,5,2,12,0.00
2013-11-6,30.7,26.3,20.7,18.4,15.5,13.1,83,64,49,30.07,29.95,7,3,12,0.00
2013-11-7,26.2,21.9,18.4,17.8,15.4,13.5,83,76,64,29.95,29.82,6,4,11,0.00
2013-11-8,25.7,18.1,11.4,18.5,13.8,8.8,92,83,71,30.25,29.90,3,1,5,0.00
2013-11-9,28.4,21.9,13.7,27.2,19.4,11.1,96,90,83,30.26,30.02,6,2,9,0.00
2013-11-10,35.6,31.0,28.0,34.7,30.1,27.0,98,96,95,30.01,29.77,7,2,11,0.74
2013-11-11,28.8,24.3,18.1,27.8,22.1,14.4,97,91,84,30.08,29.84,5,3,10,0.00
2013-11-12,17.9,13.9,8.6,14.2,10.0,5.9,91,84,77,30.17,30.08,6,2,11,0.00
2013-11-13,22.0,19.3,14.6,19.5,16.4,12.2,92,88,83,30.26,30.14,4,2,7,0.00
2013-11-14,28.5,24.0,14.2,27.8,22.8,12.5,97,95,90,30.14,29.90,4,1,7,0.00
2013-11-15,19.6,13.5,6.7,18.2,11.7,4.4,94,92,88,30.09,29.96,2,0,7,0.00
2013-11-16,20.9,14.7,6.6,15.1,10.5,3.9,93,83,70,30.25,30.02,10,2,12,0.00
2013-11-17,14.8,9.1,5.0,4.8,2.3,-0.6,83,74,60,30.27,30.23,10,3,18,0.00
2013-11-18,5.0,-1.0,-9.5,0.0,-5.4,-13.3,89,81,74,30.23,30.18,3,1,6,0.00
2013-11-19,-2.5,-8.8,-14.5,-5.9,-12.4,-18.4,86,84,82,30.19,30.07,3,0,5,0.00
2013-11-20,-2.4,-5.9,-10.0,-6.8,-10.8,-14.2,85,79,72,30.16,30.06,7,3,13,0.00
2013-11-21,15.0,1.3,-9.1,12.3,-4.0,-13.8,89,78,66,30.06,29.28,10,5,18,0.00
2013-11-22,30.8,23.4,14.2,29.0,20.3,11.3,95,88,77,29.48,29.10,8,5,15,0.00
2013-11-23,27.7,22.4,11.2,22.2,17.7,8.6,93,82,72,29.98,29.49,11,6,16,0.00
2013-11-24,29.6,26.3,22.2,27.3,23.9,21.0,96,91,77,30.06,29.98,9,2,11,0.00
2013-11-25,25.1,23.1,21.7,23.4,21.6,20.2,95,94,93,30.02,29.74,3,1,7,0.00
2013-11-26,26.7,24.3,21.5,25.1,22.8,19.8,95,94,92,29.89,29.80,2,0,4,0.00
2013-11-27,28.6,26.0,17.4,27.9,23.5,9.9,97,91,65,29.89,29.70,6,1,15,0.00
2013-11-28,19.8,9.0,-11.9,10.9,1.8,-16.3,91,73,61,30.02,29.71,5,2,12,0.00
2013-11-29,-7.9,-13.9,-20.1,-11.4,-17.8,-24.6,86,82,77,30.20,30.02,2,0,4,0.00
2013-11-30,6.1,-7.2,-21.0,0.2,-11.6,-25.5,86,81,74,30.42,30.20,6,1,10,0.00
2013-12-1,-0.7,-7.5,-13.1,-4.9,-11.3,-17.0,86,83,79,30.62,30.42,2,0,4,0.00
2013-12-2,0.6,-5.2,-11.6,-2.7,-8.6,-15.3,88,85,82,30.76,30.61,2,0,4,0.00
2013-12-3,13.2,2.2,-4.8,10.6,-0.8,-8.0,90,87,84,30.77,30.58,1,0,3,0.00
2013-12-4,21.2,16.0,12.6,18.7,12.9,9.7,90,87,84,30.59,30.45,2,0,4,0.00
2013-12-5,29.3,26.3,21.2,28.3,24.0,18.5,96,91,86,30.54,30.43,5,1,6,0.00
2013-12-6,32.6,31.6,29.3,32.1,30.9,28.3,98,97,96,30.56,30.52,4,1,8,0.05
2013-12-7,33.2,32.5,32.0,32.7,32.0,31.5,98,98,98,30.53,30.45,2,0,4,0.16
2013-12-8,32.1,30.4,28.0,31.6,29.9,27.5,98,98,98,30.48,30.39,5,2,8,0.01
2013-12-9,29.6,28.5,27.3,28.6,27.5,26.3,98,96,94,30.41,30.27,5,2,9,0.00
2013-12-10,28.8,26.7,20.5,28.3,25.4,17.0,98,95,85,30.22,29.81,7,2,11,0.00
2013-12-11,22.2,17.0,8.1,17.0,9.2,1.3,91,73,47,29.81,29.45,18,6,32,0.00
2013-12-12,16.6,10.9,9.1,9.1,4.9,2.7,85,76,61,29.52,29.42,9,4,17,0.00
2013-12-13,19.8,12.0,4.2,17.9,8.9,1.7,93,87,80,29.54,28.85,7,5,16,0.00
2013-12-14,21.7,17.7,14.8,18.7,15.4,12.3,93,90,81,29.10,28.85,13,3,23,0.00
2013-12-15,18.0,8.4,-9.6,16.1,5.7,-13.1,93,88,82,29.94,29.11,5,2,9,0.00
2013-12-16,4.2,-5.3,-20.1,1.4,-8.8,-24.4,89,85,79,30.15,29.95,2,0,4,0.00
2013-12-17,-14.8,-19.9,-23.3,-18.5,-24.0,-28.0,83,81,78,30.46,30.15,1,0,4,0.00
2013-12-18,1.1,-15.7,-23.9,-1.6,-19.5,-28.3,88,82,78,30.46,29.99,3,0,6,0.00
2013-12-19,12.1,9.0,5.9,10.0,6.8,3.4,91,90,88,29.80,29.68,6,2,9,0.00
2013-12-20,22.0,16.5,11.5,20.8,14.7,9.4,95,92,91,29.74,29.66,5,2,9,0.00
2013-12-21,28.4,25.6,22.1,27.4,24.5,20.7,96,96,94,29.70,29.50,6,3,8,0.00
2013-12-22,29.2,28.8,28.2,28.5,28.1,27.2,97,97,96,29.49,29.38,5,2,9,0.00
2013-12-23,17.3,-1.2,-15.7,6.1,-5.4,-19.2,88,82,61,30.19,29.77,3,1,8,0.00
2013-12-24,-7.5,-10.2,-17.5,-10.8,-13.7,-21.8,87,84,79,30.21,29.84,2,0,4,0.00
2013-12-25,-6.0,-14.8,-21.9,-9.3,-18.6,-26.1,87,82,78,29.84,29.76,3,0,6,0.00
2013-12-26,2.5,-2.2,-17.0,-1.0,-5.7,-20.8,88,84,80,29.82,29.72,4,0,6,0.00
2013-12-27,10.8,-4.1,-13.8,8.2,-7.8,-17.8,89,84,77,30.02,29.82,7,1,10,0.00
2013-12-28,21.6,18.0,10.9,20.4,15.8,8.3,95,91,88,30.01,29.93,6,2,11,0.00
2013-12-29,21.5,17.0,12.2,20.0,15.2,9.8,95,92,88,29.97,29.73,4,1,8,0.00
2013-12-30,13.1,10.3,5.5,11.0,8.2,2.7,94,91,85,29.73,29.49,2,0,5,0.00
2013-12-31,24.1,14.8,5.2,19.1,11.4,2.3,91,86,79,29.69,29.28,7,4,12,0.00
2014-1-1,35.5,30.5,22.7,30.2,24.7,18.0,92,79,70,29.52,29.16,16,6,24,0.00
2014-1-2,30.2,27.5,22.9,28.3,26.0,21.5,97,94,91,30.07,29.52,4,0,7,0.00